createdAt,value
2023-04-08T00:00:09.340Z,101468.00
2023-04-08T00:03:03.128Z,101472.20
2023-04-08T00:05:32.025Z,101475.00
2023-04-08T00:08:00.897Z,101476.20
2023-04-08T00:10:29.483Z,101471.60
2023-04-08T00:12:58.070Z,101472.60
2023-04-08T00:15:27.171Z,101474.00
2023-04-08T00:17:55.814Z,101478.20
2023-04-08T00:20:25.468Z,101477.80
2023-04-08T00:22:54.046Z,101479.60
2023-04-08T00:25:24.775Z,101479.40
2023-04-08T00:27:54.081Z,101477.20
2023-04-08T00:30:22.767Z,101479.60
2023-04-08T00:32:51.606Z,101476.60
2023-04-08T00:35:20.585Z,101478.40
2023-04-08T00:37:50.168Z,101483.60
2023-04-08T00:40:18.851Z,101478.00
2023-04-08T00:42:47.538Z,101483.60
2023-04-08T00:45:16.869Z,101492.80
2023-04-08T00:47:46.902Z,101490.00
2023-04-08T00:50:16.153Z,101484.20
2023-04-08T00:52:44.740Z,101483.40
2023-04-08T00:55:13.430Z,101483.40
2023-04-08T00:57:42.441Z,101488.20
2023-04-08T01:00:12.145Z,101491.80
2023-04-08T01:03:12.071Z,101498.60
2023-04-08T01:05:44.426Z,101505.20
2023-04-08T01:08:14.137Z,101509.00
2023-04-08T01:10:46.021Z,101514.60
2023-04-08T01:13:18.675Z,101514.00
2023-04-08T01:15:47.299Z,101522.20
2023-04-08T01:18:17.620Z,101522.40
2023-04-08T01:20:47.669Z,101518.40
2023-04-08T01:23:47.318Z,101519.00
2023-04-08T01:26:24.767Z,101521.00
2023-04-08T01:28:59.517Z,101522.80
2023-04-08T01:31:29.464Z,101519.00
2023-04-08T01:34:02.825Z,101520.60
2023-04-08T01:36:33.317Z,101517.60
2023-04-08T01:39:05.782Z,101514.60
2023-04-08T01:41:36.931Z,101516.00
2023-04-08T01:44:06.217Z,101517.20
2023-04-08T01:46:36.065Z,101522.40
2023-04-08T01:49:06.754Z,101518.80
2023-04-08T01:51:39.799Z,101519.40
2023-04-08T01:54:08.536Z,101520.60
2023-04-08T01:56:41.708Z,101525.80
2023-04-08T01:59:16.088Z,101529.40
2023-04-08T02:01:45.690Z,101527.60
2023-04-08T02:04:14.519Z,101528.80
2023-04-08T02:06:43.951Z,101528.20
2023-04-08T02:09:12.532Z,101531.60
2023-04-08T02:11:41.425Z,101534.60
2023-04-08T02:14:10.214Z,101531.80
2023-04-08T02:17:02.259Z,101533.60
2023-04-08T02:19:44.361Z,101529.00
2023-04-08T02:22:48.773Z,101533.00
2023-04-08T02:25:23.357Z,101535.20
2023-04-08T02:27:54.930Z,101531.60
2023-04-08T02:30:26.090Z,101533.40
2023-04-08T02:32:57.223Z,101535.20
2023-04-08T02:35:27.852Z,101539.40
2023-04-08T02:37:56.560Z,101541.00
2023-04-08T02:40:31.812Z,101545.40
2023-04-08T02:43:00.691Z,101545.60
2023-04-08T02:45:38.439Z,101541.80
2023-04-08T02:48:07.677Z,101546.60
2023-04-08T02:50:36.305Z,101549.40
2023-04-08T02:53:04.966Z,101555.20
2023-04-08T02:55:34.677Z,101558.80
2023-04-08T02:58:03.362Z,101556.80
2023-04-08T03:00:32.457Z,101563.60
2023-04-08T03:03:01.609Z,101560.20
2023-04-08T03:05:30.646Z,101566.60
2023-04-08T03:07:59.644Z,101564.80
2023-04-08T03:10:28.227Z,101566.60
2023-04-08T03:12:56.816Z,101571.60
2023-04-08T03:15:25.397Z,101573.00
2023-04-08T03:17:54.037Z,101575.60
2023-04-08T03:20:22.681Z,101574.20
2023-04-08T03:22:51.247Z,101569.80
2023-04-08T03:25:19.840Z,101573.40
2023-04-08T03:27:48.419Z,101569.20
2023-04-08T03:30:17.314Z,101570.80
2023-04-08T03:32:46.268Z,101576.20
2023-04-08T03:35:15.100Z,101571.40
2023-04-08T03:37:43.678Z,101580.40
2023-04-08T03:40:13.526Z,101582.20
2023-04-08T03:42:42.077Z,101585.00
2023-04-08T03:45:11.074Z,101586.20
2023-04-08T03:47:39.816Z,101588.40
2023-04-08T03:50:09.572Z,101599.00
2023-04-08T03:52:38.153Z,101599.40
2023-04-08T03:55:07.552Z,101600.20
2023-04-08T03:57:36.143Z,101599.20
2023-04-08T04:00:05.644Z,101608.40
2023-04-08T04:02:41.147Z,101608.60
2023-04-08T04:05:10.084Z,101616.00
2023-04-08T04:07:38.669Z,101614.00
2023-04-08T04:10:08.960Z,101617.00
2023-04-08T04:12:37.484Z,101619.20
2023-04-08T04:15:07.286Z,101624.80
2023-04-08T04:17:35.894Z,101624.60
2023-04-08T04:20:08.625Z,101635.20
2023-04-08T04:22:37.137Z,101638.00
2023-04-08T04:25:06.708Z,101641.40
2023-04-08T04:27:36.993Z,101652.60
2023-04-08T04:30:07.414Z,101652.20
2023-04-08T04:32:36.014Z,101656.40
2023-04-08T04:35:05.413Z,101653.80
2023-04-08T04:37:33.973Z,101652.40
2023-04-08T04:40:05.151Z,101660.60
2023-04-08T04:42:33.902Z,101663.80
2023-04-08T04:45:02.767Z,101662.80
2023-04-08T04:47:33.003Z,101661.40
2023-04-08T04:50:01.977Z,101663.20
2023-04-08T04:52:31.104Z,101667.60
2023-04-08T04:54:59.697Z,101663.80
2023-04-08T04:57:28.483Z,101665.60
2023-04-08T04:59:57.063Z,101670.20
2023-04-08T05:02:26.019Z,101669.40
2023-04-08T05:04:55.978Z,101669.60
2023-04-08T05:07:24.867Z,101674.80
2023-04-08T05:09:54.636Z,101674.60
2023-04-08T05:12:23.182Z,101678.00
2023-04-08T05:14:51.882Z,101679.20
2023-04-08T05:17:20.547Z,101681.20
2023-04-08T05:19:49.023Z,101685.60
2023-04-08T05:22:17.610Z,101689.20
2023-04-08T05:24:46.544Z,101693.80
2023-04-08T05:27:15.088Z,101699.00
2023-04-08T05:29:43.874Z,101700.60
2023-04-08T05:32:12.458Z,101700.00
2023-04-08T05:34:41.453Z,101700.80
2023-04-08T05:37:09.949Z,101704.80
2023-04-08T05:39:38.725Z,101710.20
2023-04-08T05:42:07.313Z,101712.40
2023-04-08T05:44:36.317Z,101714.80
2023-04-08T05:47:04.974Z,101716.60
2023-04-08T05:49:34.615Z,101713.60
2023-04-08T05:52:04.114Z,101717.20
2023-04-08T05:54:32.943Z,101715.80
2023-04-08T05:57:01.482Z,101720.80
2023-04-08T05:59:30.160Z,101719.00
2023-04-08T06:01:58.734Z,101722.00
2023-04-08T06:04:27.581Z,101725.80
2023-04-08T06:07:00.011Z,101727.20
2023-04-08T06:09:28.591Z,101729.60
2023-04-08T06:11:57.790Z,101732.40
2023-04-08T06:14:26.372Z,101734.80
2023-04-08T06:16:57.898Z,101739.40
2023-04-08T06:19:26.715Z,101737.20
2023-04-08T06:21:59.333Z,101742.00
2023-04-08T06:24:29.661Z,101741.60
2023-04-08T06:26:58.819Z,101746.80
2023-04-08T06:29:27.525Z,101744.40
2023-04-08T06:31:56.750Z,101747.80
2023-04-08T06:34:25.494Z,101753.40
2023-04-08T06:36:53.983Z,101756.60
2023-04-08T06:39:22.456Z,101764.00
2023-04-08T06:41:51.354Z,101763.00
2023-04-08T06:44:36.336Z,101767.00
2023-04-08T06:47:05.009Z,101765.40
2023-04-08T06:49:33.691Z,101766.60
2023-04-08T06:52:02.272Z,101748.00
2023-04-08T06:54:30.860Z,101767.60
2023-04-08T06:56:59.647Z,101766.20
2023-04-08T06:59:28.232Z,101756.00
2023-04-08T07:01:57.061Z,101758.60
2023-04-08T07:04:26.321Z,101751.20
2023-04-08T07:06:54.869Z,101747.20
2023-04-08T07:09:23.599Z,101744.80
2023-04-08T07:11:52.288Z,101758.40
2023-04-08T07:14:20.870Z,101765.00
2023-04-08T07:16:49.583Z,101773.40
2023-04-08T07:19:18.343Z,101773.40
2023-04-08T07:21:47.133Z,101779.60
2023-04-08T07:24:16.388Z,101779.00
2023-04-08T07:26:45.555Z,101788.60
2023-04-08T07:29:14.114Z,101786.60
2023-04-08T07:31:45.877Z,101785.00
2023-04-08T07:34:14.461Z,101786.20
2023-04-08T07:36:43.359Z,101785.00
2023-04-08T07:39:11.934Z,101783.20
2023-04-08T07:41:40.624Z,101792.40
2023-04-08T07:44:09.205Z,101798.00
2023-04-08T07:46:39.437Z,101807.80
2023-04-08T07:49:08.119Z,101815.60
2023-04-08T07:51:36.704Z,101819.00
2023-04-08T07:54:05.491Z,101822.40
2023-04-08T07:56:34.076Z,101822.80
2023-04-08T07:59:02.866Z,101818.40
2023-04-08T08:01:35.091Z,101823.40
2023-04-08T08:04:04.488Z,101825.20
2023-04-08T08:06:33.025Z,101821.80
2023-04-08T08:09:01.610Z,101822.60
2023-04-08T08:11:30.402Z,101827.40
2023-04-08T08:13:59.087Z,101832.40
2023-04-08T08:16:32.347Z,101839.80
2023-04-08T08:19:01.731Z,101835.80
2023-04-08T08:21:30.365Z,101844.60
2023-04-08T08:23:59.973Z,101841.20
2023-04-08T08:26:28.968Z,101842.60
2023-04-08T08:28:57.656Z,101848.00
2023-04-08T08:31:26.194Z,101848.00
2023-04-08T08:33:54.930Z,101857.20
2023-04-08T08:36:23.619Z,101853.00
2023-04-08T08:38:53.856Z,101858.60
2023-04-08T08:41:22.523Z,101862.60
2023-04-08T08:43:52.307Z,101865.00
2023-04-08T08:46:21.896Z,101864.40
2023-04-08T08:48:50.734Z,101870.00
2023-04-08T08:51:19.628Z,101874.40
2023-04-08T08:53:48.326Z,101874.00
2023-04-08T08:56:18.677Z,101884.00
2023-04-08T08:58:48.043Z,101879.00
2023-04-08T09:01:49.178Z,101886.20
2023-04-08T09:04:20.894Z,101886.60
2023-04-08T09:07:04.999Z,101888.00
2023-04-08T09:09:53.258Z,101882.20
2023-04-08T09:12:22.678Z,101888.00
2023-04-08T09:14:52.007Z,101888.80
2023-04-08T09:17:47.380Z,101893.00
2023-04-08T09:20:16.463Z,101893.20
2023-04-08T09:22:54.067Z,101891.60
2023-04-08T09:25:34.213Z,101892.20
2023-04-08T09:28:03.504Z,101898.80
2023-04-08T09:30:33.200Z,101899.80
2023-04-08T09:33:04.712Z,101899.40
2023-04-08T09:35:33.278Z,101907.20
2023-04-08T09:38:02.860Z,101909.40
2023-04-08T09:40:38.516Z,101909.60
2023-04-08T09:43:12.422Z,101913.80
2023-04-08T09:45:43.278Z,101914.80
2023-04-08T09:48:24.959Z,101919.40
2023-04-08T09:50:58.126Z,101917.40
2023-04-08T09:53:41.890Z,101923.00
2023-04-08T09:56:13.308Z,101925.40
2023-04-08T09:58:54.499Z,101930.40
2023-04-08T10:01:40.366Z,101930.00
2023-04-08T10:04:16.221Z,101922.60
2023-04-08T10:06:46.311Z,101926.60
2023-04-08T10:09:15.067Z,101922.00
2023-04-08T10:11:43.960Z,101926.40
2023-04-08T10:14:12.952Z,101929.80
2023-04-08T10:16:41.668Z,101927.80
2023-04-08T10:19:43.304Z,101933.60
2023-04-08T10:22:30.728Z,101933.80
2023-04-08T10:25:17.538Z,101937.00
2023-04-08T10:27:46.861Z,101936.40
2023-04-08T10:30:33.650Z,101944.20
2023-04-08T10:33:02.441Z,101943.20
2023-04-08T10:35:35.140Z,101942.00
2023-04-08T10:38:04.324Z,101939.20
2023-04-08T10:40:39.202Z,101948.60
2023-04-08T10:43:08.452Z,101941.80
2023-04-08T10:45:37.833Z,101944.60
2023-04-08T10:48:22.753Z,101943.00
2023-04-08T10:50:59.742Z,101946.00
2023-04-08T10:53:36.037Z,101949.20
2023-04-08T10:56:16.672Z,101943.80
2023-04-08T10:58:56.835Z,101943.80
2023-04-08T11:01:26.492Z,101941.60
2023-04-08T11:03:55.409Z,101941.60
2023-04-08T11:06:25.209Z,101941.00
2023-04-08T11:08:53.792Z,101943.80
2023-04-08T11:11:23.090Z,101940.40
2023-04-08T11:13:53.634Z,101937.00
2023-04-08T11:16:23.631Z,101933.00
2023-04-08T11:18:53.864Z,101936.00
2023-04-08T11:21:29.848Z,101933.00
2023-04-08T11:23:58.609Z,101936.20
2023-04-08T11:26:28.137Z,101942.60
2023-04-08T11:28:58.798Z,101936.20
2023-04-08T11:31:28.212Z,101941.40
2023-04-08T11:33:57.039Z,101938.00
2023-04-08T11:36:27.523Z,101937.00
2023-04-08T11:38:56.174Z,101940.80
2023-04-08T11:41:24.947Z,101934.20
2023-04-08T11:43:57.530Z,101936.20
2023-04-08T11:46:26.320Z,101937.60
2023-04-08T11:49:04.243Z,101934.80
2023-04-08T11:51:35.094Z,101936.00
2023-04-08T11:54:09.808Z,101939.20
2023-04-08T11:56:47.479Z,101940.40
2023-04-08T11:59:16.169Z,101939.20
2023-04-08T12:01:44.797Z,101938.60
2023-04-08T12:04:13.798Z,101942.60
2023-04-08T12:06:43.966Z,101943.60
2023-04-08T12:09:12.876Z,101948.00
2023-04-08T12:11:41.546Z,101944.40
2023-04-08T12:14:10.255Z,101943.60
2023-04-08T12:16:38.861Z,101945.20
2023-04-08T12:19:07.818Z,101947.40
2023-04-08T12:21:36.403Z,101949.20
2023-04-08T12:24:05.187Z,101952.20
2023-04-08T12:26:33.769Z,101953.80
2023-04-08T12:29:02.670Z,101953.00
2023-04-08T12:31:31.291Z,101961.80
2023-04-08T12:33:59.934Z,101954.00
2023-04-08T12:36:28.700Z,101958.80
2023-04-08T12:38:57.617Z,101960.80
2023-04-08T12:41:26.207Z,101963.40
2023-04-08T12:43:54.797Z,101955.40
2023-04-08T12:46:23.743Z,101966.00
2023-04-08T12:49:03.083Z,101963.20
2023-04-08T12:51:32.723Z,101968.40
2023-04-08T12:54:03.449Z,101963.80
2023-04-08T12:56:33.173Z,101961.40
2023-04-08T12:59:01.960Z,101960.20
2023-04-08T13:01:31.281Z,101960.80
2023-04-08T13:04:00.537Z,101953.00
2023-04-08T13:06:29.256Z,101952.00
2023-04-08T13:08:58.050Z,101942.60
2023-04-08T13:11:26.936Z,101949.80
2023-04-08T13:13:55.524Z,101950.40
2023-04-08T13:16:24.256Z,101956.60
2023-04-08T13:18:53.787Z,101955.40
2023-04-08T13:21:22.398Z,101965.00
2023-04-08T13:23:51.213Z,101962.00
2023-04-08T13:26:19.878Z,101961.80
2023-04-08T13:28:56.635Z,101963.40
2023-04-08T13:31:26.425Z,101969.80
2023-04-08T13:33:58.005Z,101976.00
2023-04-08T13:36:29.022Z,101979.20
2023-04-08T13:38:57.949Z,101977.40
2023-04-08T13:41:28.451Z,101982.60
2023-04-08T13:43:57.373Z,101987.00
2023-04-08T13:46:26.091Z,101979.80
2023-04-08T13:48:55.165Z,101978.40
2023-04-08T13:51:23.858Z,101982.40
2023-04-08T13:53:52.637Z,101980.40
2023-04-08T13:56:21.417Z,101981.00
2023-04-08T13:58:56.447Z,101986.60
2023-04-08T14:01:26.472Z,101983.20
2023-04-08T14:03:55.154Z,101985.60
2023-04-08T14:06:23.754Z,101983.00
2023-04-08T14:08:52.666Z,101991.40
2023-04-08T14:11:22.140Z,101984.40
2023-04-08T14:13:50.637Z,101991.20
2023-04-08T14:16:20.042Z,101986.40
2023-04-08T14:18:49.021Z,101980.80
2023-04-08T14:21:19.036Z,101987.80
2023-04-08T14:23:47.725Z,101980.20
2023-04-08T14:26:16.724Z,101976.00
2023-04-08T14:28:45.403Z,101974.20
2023-04-08T14:31:15.270Z,101976.20
2023-04-08T14:33:43.803Z,101978.60
2023-04-08T14:36:12.510Z,101981.40
2023-04-08T14:38:41.483Z,101982.00
2023-04-08T14:41:10.580Z,101980.00
2023-04-08T14:43:39.062Z,101986.20
2023-04-08T14:46:08.094Z,101985.00
2023-04-08T14:48:36.743Z,101981.20
2023-04-08T14:51:07.005Z,101983.00
2023-04-08T14:53:35.755Z,101972.80
2023-04-08T14:56:05.468Z,101976.00
2023-04-08T14:58:34.151Z,101977.60
2023-04-08T15:01:02.768Z,101973.60
2023-04-08T15:03:31.504Z,101969.40
2023-04-08T15:06:01.547Z,101968.00
2023-04-08T15:08:30.232Z,101967.60
2023-04-08T15:10:58.813Z,101965.60
2023-04-08T15:13:27.396Z,101973.00
2023-04-08T15:15:56.129Z,101968.40
2023-04-08T15:18:24.883Z,101970.20
2023-04-08T15:20:53.562Z,101975.60
2023-04-08T15:23:22.366Z,101976.80
2023-04-08T15:25:51.428Z,101976.20
2023-04-08T15:28:21.057Z,101974.80
2023-04-08T15:30:50.708Z,101976.00
2023-04-08T15:33:20.377Z,101973.40
2023-04-08T15:35:48.974Z,101978.60
2023-04-08T15:38:17.953Z,101976.80
2023-04-08T15:40:48.191Z,101974.20
2023-04-08T15:43:17.078Z,101985.80
2023-04-08T15:45:46.751Z,101984.00
2023-04-08T15:48:15.777Z,101988.80
2023-04-08T15:50:44.282Z,101997.40
2023-04-08T15:53:13.050Z,101997.60
2023-04-08T15:55:42.367Z,101998.00
2023-04-08T15:58:10.961Z,102000.20
2023-04-08T16:00:39.822Z,102008.00
2023-04-08T16:03:12.247Z,102003.80
2023-04-08T16:05:42.207Z,102003.40
2023-04-08T16:08:10.795Z,102002.00
2023-04-08T16:10:39.374Z,102005.20
2023-04-08T16:13:07.859Z,102002.40
2023-04-08T16:15:36.543Z,102007.40
2023-04-08T16:18:06.776Z,102001.20
2023-04-08T16:20:39.144Z,102003.20
2023-04-08T16:23:07.731Z,102008.60
2023-04-08T16:25:36.921Z,102008.40
2023-04-08T16:28:05.614Z,102007.20
2023-04-08T16:30:36.566Z,102013.40
2023-04-08T16:33:06.462Z,102013.20
2023-04-08T16:35:36.003Z,102018.20
2023-04-08T16:38:04.971Z,102015.60
2023-04-08T16:40:34.209Z,102016.80
2023-04-08T16:43:05.026Z,102018.40
2023-04-08T16:45:33.636Z,102022.80
2023-04-08T16:48:02.818Z,102024.00
2023-04-08T16:50:31.578Z,102018.20
2023-04-08T16:53:00.161Z,102017.00
2023-04-08T16:55:36.153Z,102027.40
2023-04-08T16:58:05.215Z,102031.20
2023-04-08T17:00:34.112Z,102032.40
2023-04-08T17:03:02.866Z,102037.60
2023-04-08T17:05:32.095Z,102034.60
2023-04-08T17:08:01.235Z,102036.00
2023-04-08T17:10:29.879Z,102043.80
2023-04-08T17:12:58.565Z,102048.80
2023-04-08T17:15:27.487Z,102048.00
2023-04-08T17:17:56.267Z,102054.20
2023-04-08T17:20:26.780Z,102053.40
2023-04-08T17:22:55.363Z,102059.80
2023-04-08T17:25:24.878Z,102058.60
2023-04-08T17:27:53.468Z,102064.40
2023-04-08T17:30:22.354Z,102072.60
2023-04-08T17:32:50.916Z,102075.00
2023-04-08T17:35:19.618Z,102074.60
2023-04-08T17:37:48.618Z,102075.60
2023-04-08T17:40:17.895Z,102077.80
2023-04-08T17:42:46.909Z,102083.80
2023-04-08T17:45:15.682Z,102085.60
2023-04-08T17:47:44.218Z,102082.20
2023-04-08T17:50:12.972Z,102085.60
2023-04-08T17:52:48.044Z,102091.60
2023-04-08T17:55:17.016Z,102094.00
2023-04-08T17:57:45.579Z,102100.20
2023-04-08T18:00:14.552Z,102106.60
2023-04-08T18:02:43.314Z,102106.80
2023-04-08T18:05:12.461Z,102109.20
2023-04-08T18:07:41.145Z,102112.80
2023-04-08T18:10:10.209Z,102116.60
2023-04-08T18:12:38.730Z,102116.40
2023-04-08T18:15:08.403Z,102119.40
2023-04-08T18:17:36.941Z,102130.20
2023-04-08T18:20:07.142Z,102132.80
2023-04-08T18:22:35.624Z,102136.40
2023-04-08T18:25:05.467Z,102145.00
2023-04-08T18:27:34.431Z,102149.20
2023-04-08T18:30:02.933Z,102144.60
2023-04-08T18:32:31.530Z,102144.60
2023-04-08T18:35:00.384Z,102146.20
2023-04-08T18:37:30.610Z,102147.20
2023-04-08T18:40:00.013Z,102146.20
2023-04-08T18:42:28.747Z,102154.20
2023-04-08T18:44:57.290Z,102155.00
2023-04-08T18:47:25.895Z,102156.40
2023-04-08T18:49:54.659Z,102161.00
2023-04-08T18:52:23.266Z,102162.00
2023-04-08T18:54:51.930Z,102168.20
2023-04-08T18:57:20.624Z,102167.60
2023-04-08T18:59:49.311Z,102171.20
2023-04-08T19:02:17.929Z,102173.20
2023-04-08T19:04:47.019Z,102174.80
2023-04-08T19:07:17.313Z,102180.00
2023-04-08T19:09:46.132Z,102180.00
2023-04-08T19:12:14.783Z,102178.20
2023-04-08T19:14:43.369Z,102171.60
2023-04-08T19:17:12.156Z,102180.60
2023-04-08T19:19:40.861Z,102181.60
2023-04-08T19:22:09.327Z,102190.00
2023-04-08T19:24:38.012Z,102192.20
2023-04-08T19:27:06.708Z,102189.60
2023-04-08T19:29:35.283Z,102190.00
2023-04-08T19:32:04.480Z,102188.40
2023-04-08T19:34:38.469Z,102187.80
2023-04-08T19:37:07.595Z,102185.00
2023-04-08T19:39:36.274Z,102182.80
2023-04-08T19:42:05.381Z,102183.00
2023-04-08T19:44:34.063Z,102178.80
2023-04-08T19:47:02.958Z,102183.80
2023-04-08T19:49:31.537Z,102188.00
2023-04-08T19:52:00.327Z,102191.60
2023-04-08T19:54:30.444Z,102189.80
2023-04-08T19:56:59.541Z,102186.60
2023-04-08T19:59:28.233Z,102189.00
2023-04-08T20:01:56.808Z,102193.20
2023-04-08T20:04:25.712Z,102194.60
2023-04-08T20:06:54.700Z,102196.80
2023-04-08T20:09:23.399Z,102189.00
2023-04-08T20:11:52.487Z,102193.80
2023-04-08T20:14:21.170Z,102190.40
2023-04-08T20:16:49.855Z,102193.80
2023-04-08T20:19:18.445Z,102198.40
2023-04-08T20:21:47.139Z,102196.00
2023-04-08T20:24:16.577Z,102199.00
2023-04-08T20:26:45.427Z,102193.80
2023-04-08T20:29:13.915Z,102197.00
2023-04-08T20:31:43.844Z,102194.80
2023-04-08T20:34:13.128Z,102197.00
2023-04-08T20:36:41.608Z,102199.80
2023-04-08T20:39:11.165Z,102203.60
2023-04-08T20:41:40.010Z,102201.80
2023-04-08T20:44:10.804Z,102208.80
2023-04-08T20:46:40.152Z,102206.60
2023-04-08T20:49:08.856Z,102215.00
2023-04-08T20:51:37.518Z,102208.80
2023-04-08T20:54:06.109Z,102214.60
2023-04-08T20:56:34.790Z,102213.60
2023-04-08T20:59:03.479Z,102213.80
2023-04-08T21:01:32.296Z,102213.20
2023-04-08T21:04:01.168Z,102214.00
2023-04-08T21:06:29.637Z,102209.40
2023-04-08T21:08:58.531Z,102209.20
2023-04-08T21:11:28.867Z,102218.20
2023-04-08T21:13:57.441Z,102216.00
2023-04-08T21:16:26.133Z,102220.20
2023-04-08T21:18:55.119Z,102222.00
2023-04-08T21:21:23.628Z,102221.40
2023-04-08T21:23:52.286Z,102219.20
2023-04-08T21:26:22.211Z,102216.40
2023-04-08T21:28:51.301Z,102220.40
2023-04-08T21:31:19.915Z,102227.80
2023-04-08T21:33:48.670Z,102226.20
2023-04-08T21:36:17.486Z,102226.40
2023-04-08T21:38:46.145Z,102220.40
2023-04-08T21:41:14.733Z,102219.80
2023-04-08T21:43:43.315Z,102221.00
2023-04-08T21:46:12.123Z,102227.40
2023-04-08T21:48:40.894Z,102233.20
2023-04-08T21:51:09.477Z,102231.20
2023-04-08T21:53:39.081Z,102230.80
2023-04-08T21:56:08.602Z,102226.00
2023-04-08T21:58:37.179Z,102230.80
2023-04-08T22:01:05.785Z,102234.40
2023-04-08T22:03:34.675Z,102239.20
2023-04-08T22:06:03.655Z,102239.20
2023-04-08T22:08:32.863Z,102236.60
2023-04-08T22:11:01.429Z,102235.40
2023-04-08T22:13:30.026Z,102232.60
2023-04-08T22:15:58.500Z,102234.00
2023-04-08T22:18:27.595Z,102241.00
2023-04-08T22:20:56.383Z,102238.80
2023-04-08T22:23:24.983Z,102239.80
2023-04-08T22:25:53.654Z,102238.40
2023-04-08T22:28:22.550Z,102241.60
2023-04-08T22:30:51.183Z,102241.60
2023-04-08T22:33:19.819Z,102241.00
2023-04-08T22:35:48.431Z,102241.00
2023-04-08T22:38:17.408Z,102237.00
2023-04-08T22:40:46.292Z,102239.60
2023-04-08T22:43:14.776Z,102235.20
2023-04-08T22:45:43.356Z,102237.80
2023-04-08T22:48:11.943Z,102230.60
2023-04-08T22:50:41.572Z,102236.00
2023-04-08T22:53:10.236Z,102234.60
2023-04-08T22:55:38.927Z,102238.00
2023-04-08T22:58:07.507Z,102240.00
2023-04-08T23:00:36.301Z,102240.40
2023-04-08T23:03:05.079Z,102237.20
2023-04-08T23:05:33.992Z,102241.40
2023-04-08T23:08:02.767Z,102242.80
2023-04-08T23:10:31.587Z,102244.80
2023-04-08T23:13:00.143Z,102245.60
2023-04-08T23:15:28.928Z,102242.20
2023-04-08T23:17:57.660Z,102247.60
2023-04-08T23:20:26.406Z,102246.80
2023-04-08T23:22:54.987Z,102246.80
2023-04-08T23:25:23.571Z,102249.40
2023-04-08T23:27:52.261Z,102244.80
2023-04-08T23:30:21.194Z,102248.20
2023-04-08T23:32:49.677Z,102245.40
2023-04-08T23:35:18.633Z,102249.40
2023-04-08T23:37:47.319Z,102252.60
2023-04-08T23:40:16.208Z,102248.40
2023-04-08T23:42:44.692Z,102248.80
2023-04-08T23:45:13.384Z,102245.40
2023-04-08T23:47:42.160Z,102244.20
2023-04-08T23:50:11.165Z,102244.60
2023-04-08T23:52:39.910Z,102241.80
2023-04-08T23:55:09.386Z,102241.60
2023-04-08T23:57:37.844Z,102240.40
